This is the latest recevied weather packets stored in our database for station/object EA1JAO-11. If no packets are shown the sender has not sent any weather packets the latest 10 day(s).
| Time | Temp. | Humidity | Pressure | Rain* | Wind** | Luminosity | Snow |
|---|---|---|---|---|---|---|---|
| 1777620977 | 16.11° C | 86% | 1018.3 hPa | - | - | - | - |
| 1777619177 | 13.89° C | 89% | 1018.3 hPa | - | - | - | - |
| 1777617381 | 14.44° C | 92% | 1018.3 hPa | - | - | - | - |
| 1777615581 | 13.33° C | 93% | 1018.2 hPa | - | - | - | - |
| 1777613781 | 12.22° C | 94% | 1018 hPa | - | - | - | - |
| 1777611981 | 12.22° C | 93% | 1017.9 hPa | - | - | - | - |
| 1777610181 | 12.22° C | 92% | 1017.9 hPa | - | - | - | - |
| 1777608381 | 12.22° C | 92% | 1018.2 hPa | - | - | - | - |
| 1777606581 | 12.78° C | 93% | 1018 hPa | - | - | - | - |
| 1777604781 | 12.22° C | 92% | 1018 hPa | - | - | - | - |
| 1777602981 | 12.78° C | 91% | 1018.2 hPa | - | - | - | - |
| 1777601177 | 12.78° C | 91% | 1018 hPa | - | - | - | - |
| 1777599377 | 12.78° C | 90% | 1018.4 hPa | - | - | - | - |
| 1777597576 | 12.78° C | 89% | 1018.5 hPa | - | - | - | - |
| 1777595781 | 12.78° C | 88% | 1018.7 hPa | - | - | - | - |
| 1777593980 | 13.33° C | 87% | 1018.7 hPa | - | - | - | - |
| 1777592180 | 13.33° C | 87% | 1018.6 hPa | - | - | - | - |
| 1777590380 | 13.89° C | 84% | 1018.4 hPa | - | - | - | - |
| 1777588579 | 13.89° C | 83% | 1018.6 hPa | - | - | - | - |
| 1777586779 | 14.44° C | 83% | 1018.7 hPa | - | - | - | - |
| 1777584980 | 15° C | 80% | 1018.6 hPa | - | - | - | - |
| 1777583180 | 15° C | 78% | 1018.4 hPa | - | - | - | - |
| 1777581380 | 15.56° C | 78% | 1018.3 hPa | - | - | - | - |
| 1777579579 | 16.11° C | 74% | 1017.9 hPa | - | - | - | - |
| 1777577779 | 16.67° C | 73% | 1017.7 hPa | - | - | - | - |
* Rain since midnight (hover to see other rain measurements)
** Current wind speed in m/s (hover to see current wind gust speed)